Portada
METAR-TAF:

METAR-TAF

Aeropuertos :

Aeropuerto de Granada

Granada, España

latitud: 37-11N, longitud: 003-47W, altitud: 567 m

Observación

El informe se hizo hace 30 minutos, a las 23:00 UTC
Viento 3 kt del sur-sureste
Temperatura 23°C
Humedad 53%
Presión 1018 hPa
Visibilidad 10 km o más

METAR: LEGR 212300Z AUTO 15003KT 9999 NCD 23/13 Q1018

Hora: 01:30 (23:30 UTC)

Pronóstico

El informe se hizo hace 3 horas y 30 minutos, a las 20:00 UTC
Pronóstico válido del 21 a las 21 UTC al 22 a las 21 UTC
Viento 2 kt con dirección variable
Visibilidad 10 km o más
Escasas nubes a una altura de 5000 ft
Probabilidad 40% :
Temporalmente
del 22 a las 16 UTC al 22 a las 20 UTC
Viento 10 kt del sur-suroeste

TAF: LEGR 212000Z 2121/2221 VRB02KT 9999 FEW050 TX35/2215Z TN17/2206Z PROB40 TEMPO 2216/2220 21010KT

Observaciones y pronósticos meteorológicos de más de 4000 aeropuertos (mensajes METAR y TAF).

Los puntos amarillos y rojos representan las estaciones disponibles.

Ponga el ratón en el punto deseado para ver el nombre de la estación.

Haga clic para ver las observaciones y los pronósticos meteorológicos.

Para cambiar el mapa : haga clic en los botones verdes con una cruz de color negro para hacer un zoom, en el botón verde con un guión para alejar o en las flechas verdes para mapas adyacentes.


METAR-TAF: